sensor_id;sensor_type;location;lat;lon;timestamp;P1;durP1;ratioP1;P2;durP2;ratioP2
2898;SDS011;1459;50.864;6.438;2022-08-21T00:00:10;9.02;;;6.32;;
2898;SDS011;1459;50.864;6.438;2022-08-21T00:02:45;7.05;;;6.35;;
2898;SDS011;1459;50.864;6.438;2022-08-21T00:05:13;7.68;;;6.43;;
2898;SDS011;1459;50.864;6.438;2022-08-21T00:07:40;11.57;;;6.47;;
2898;SDS011;1459;50.864;6.438;2022-08-21T00:10:07;10.27;;;6.63;;
2898;SDS011;1459;50.864;6.438;2022-08-21T00:12:35;8.50;;;6.75;;
2898;SDS011;1459;50.864;6.438;2022-08-21T00:15:03;8.85;;;6.45;;
2898;SDS011;1459;50.864;6.438;2022-08-21T00:17:31;8.80;;;6.38;;
2898;SDS011;1459;50.864;6.438;2022-08-21T00:20:00;9.38;;;7.22;;
2898;SDS011;1459;50.864;6.438;2022-08-21T00:22:27;8.65;;;6.93;;
2898;SDS011;1459;50.864;6.438;2022-08-21T00:24:54;8.82;;;6.10;;
2898;SDS011;1459;50.864;6.438;2022-08-21T00:27:21;9.13;;;6.00;;
2898;SDS011;1459;50.864;6.438;2022-08-21T00:29:49;10.35;;;6.95;;
2898;SDS011;1459;50.864;6.438;2022-08-21T00:32:19;11.88;;;7.30;;
2898;SDS011;1459;50.864;6.438;2022-08-21T00:34:47;7.72;;;5.95;;
2898;SDS011;1459;50.864;6.438;2022-08-21T00:37:15;8.00;;;5.88;;
2898;SDS011;1459;50.864;6.438;2022-08-21T00:39:43;9.32;;;5.28;;
2898;SDS011;1459;50.864;6.438;2022-08-21T00:42:10;7.53;;;6.70;;
2898;SDS011;1459;50.864;6.438;2022-08-21T00:44:40;8.38;;;6.50;;
2898;SDS011;1459;50.864;6.438;2022-08-21T00:47:07;9.93;;;5.78;;
2898;SDS011;1459;50.864;6.438;2022-08-21T00:49:35;6.80;;;6.07;;
2898;SDS011;1459;50.864;6.438;2022-08-21T00:52:03;11.43;;;6.28;;
2898;SDS011;1459;50.864;6.438;2022-08-21T00:54:33;8.20;;;6.60;;
2898;SDS011;1459;50.864;6.438;2022-08-21T00:57:03;8.45;;;6.47;;
2898;SDS011;1459;50.864;6.438;2022-08-21T00:59:34;8.70;;;7.03;;
2898;SDS011;1459;50.864;6.438;2022-08-21T01:02:05;6.93;;;6.28;;
2898;SDS011;1459;50.864;6.438;2022-08-21T01:04:34;14.45;;;6.60;;
2898;SDS011;1459;50.864;6.438;2022-08-21T01:07:02;8.40;;;5.57;;
2898;SDS011;1459;50.864;6.438;2022-08-21T01:09:32;8.05;;;6.22;;
2898;SDS011;1459;50.864;6.438;2022-08-21T01:11:59;8.20;;;6.60;;
2898;SDS011;1459;50.864;6.438;2022-08-21T01:14:28;9.70;;;7.03;;
2898;SDS011;1459;50.864;6.438;2022-08-21T01:16:55;11.30;;;7.82;;
2898;SDS011;1459;50.864;6.438;2022-08-21T01:19:24;13.45;;;7.75;;
2898;SDS011;1459;50.864;6.438;2022-08-21T01:21:53;9.15;;;7.53;;
2898;SDS011;1459;50.864;6.438;2022-08-21T01:24:21;11.30;;;7.07;;
2898;SDS011;1459;50.864;6.438;2022-08-21T01:26:49;10.20;;;7.28;;
2898;SDS011;1459;50.864;6.438;2022-08-21T01:29:20;8.30;;;6.75;;
2898;SDS011;1459;50.864;6.438;2022-08-21T01:31:55;9.43;;;7.53;;
2898;SDS011;1459;50.864;6.438;2022-08-21T01:34:22;10.07;;;7.65;;
2898;SDS011;1459;50.864;6.438;2022-08-21T01:36:49;11.18;;;7.75;;
2898;SDS011;1459;50.864;6.438;2022-08-21T01:39:18;16.08;;;8.48;;
2898;SDS011;1459;50.864;6.438;2022-08-21T01:41:45;11.77;;;7.68;;
2898;SDS011;1459;50.864;6.438;2022-08-21T01:44:13;10.18;;;7.55;;
2898;SDS011;1459;50.864;6.438;2022-08-21T01:46:40;9.52;;;7.72;;
2898;SDS011;1459;50.864;6.438;2022-08-21T01:49:07;12.38;;;9.15;;
2898;SDS011;1459;50.864;6.438;2022-08-21T01:51:34;10.70;;;9.45;;
2898;SDS011;1459;50.864;6.438;2022-08-21T01:54:02;9.23;;;8.32;;
2898;SDS011;1459;50.864;6.438;2022-08-21T01:56:34;11.43;;;9.10;;
2898;SDS011;1459;50.864;6.438;2022-08-21T01:59:02;11.85;;;9.70;;
2898;SDS011;1459;50.864;6.438;2022-08-21T02:01:29;12.40;;;9.55;;
2898;SDS011;1459;50.864;6.438;2022-08-21T02:03:56;11.55;;;8.55;;
2898;SDS011;1459;50.864;6.438;2022-08-21T02:06:24;10.32;;;8.30;;
2898;SDS011;1459;50.864;6.438;2022-08-21T02:08:52;13.70;;;9.60;;
2898;SDS011;1459;50.864;6.438;2022-08-21T02:11:19;12.80;;;8.85;;
2898;SDS011;1459;50.864;6.438;2022-08-21T02:13:48;12.02;;;9.75;;
2898;SDS011;1459;50.864;6.438;2022-08-21T02:16:15;11.85;;;9.75;;
2898;SDS011;1459;50.864;6.438;2022-08-21T02:18:45;10.23;;;8.80;;
2898;SDS011;1459;50.864;6.438;2022-08-21T02:21:13;10.02;;;7.45;;
2898;SDS011;1459;50.864;6.438;2022-08-21T02:23:40;9.27;;;8.02;;
2898;SDS011;1459;50.864;6.438;2022-08-21T02:26:07;8.70;;;7.78;;
2898;SDS011;1459;50.864;6.438;2022-08-21T02:28:35;10.85;;;8.27;;
2898;SDS011;1459;50.864;6.438;2022-08-21T02:31:05;9.15;;;8.23;;
2898;SDS011;1459;50.864;6.438;2022-08-21T02:33:32;8.88;;;7.93;;
2898;SDS011;1459;50.864;6.438;2022-08-21T02:36:00;9.07;;;7.72;;
2898;SDS011;1459;50.864;6.438;2022-08-21T02:38:28;16.38;;;8.23;;
2898;SDS011;1459;50.864;6.438;2022-08-21T02:40:58;12.95;;;9.02;;
2898;SDS011;1459;50.864;6.438;2022-08-21T02:43:28;12.43;;;8.40;;
2898;SDS011;1459;50.864;6.438;2022-08-21T02:45:56;16.73;;;8.40;;
2898;SDS011;1459;50.864;6.438;2022-08-21T02:48:26;9.70;;;8.60;;
2898;SDS011;1459;50.864;6.438;2022-08-21T02:50:55;9.00;;;8.10;;
2898;SDS011;1459;50.864;6.438;2022-08-21T02:53:23;10.25;;;8.65;;
2898;SDS011;1459;50.864;6.438;2022-08-21T02:55:51;12.95;;;8.50;;
2898;SDS011;1459;50.864;6.438;2022-08-21T02:58:21;10.77;;;7.93;;
2898;SDS011;1459;50.864;6.438;2022-08-21T03:00:50;9.00;;;7.18;;
2898;SDS011;1459;50.864;6.438;2022-08-21T03:03:19;9.00;;;8.10;;
2898;SDS011;1459;50.864;6.438;2022-08-21T03:05:48;10.90;;;8.30;;
2898;SDS011;1459;50.864;6.438;2022-08-21T03:08:15;13.40;;;8.70;;
2898;SDS011;1459;50.864;6.438;2022-08-21T03:10:44;10.23;;;8.68;;
2898;SDS011;1459;50.864;6.438;2022-08-21T03:13:13;11.50;;;8.70;;
2898;SDS011;1459;50.864;6.438;2022-08-21T03:15:40;21.70;;;9.15;;
2898;SDS011;1459;50.864;6.438;2022-08-21T03:18:08;12.25;;;10.68;;
2898;SDS011;1459;50.864;6.438;2022-08-21T03:20:36;16.98;;;9.82;;
2898;SDS011;1459;50.864;6.438;2022-08-21T03:23:06;14.55;;;9.82;;
2898;SDS011;1459;50.864;6.438;2022-08-21T03:25:34;16.20;;;9.73;;
2898;SDS011;1459;50.864;6.438;2022-08-21T03:28:02;22.08;;;9.90;;
2898;SDS011;1459;50.864;6.438;2022-08-21T03:30:31;10.50;;;9.40;;
2898;SDS011;1459;50.864;6.438;2022-08-21T03:32:58;11.55;;;8.23;;
2898;SDS011;1459;50.864;6.438;2022-08-21T03:35:26;9.93;;;8.95;;
2898;SDS011;1459;50.864;6.438;2022-08-21T03:37:54;12.70;;;9.80;;
2898;SDS011;1459;50.864;6.438;2022-08-21T03:40:23;11.07;;;8.90;;
2898;SDS011;1459;50.864;6.438;2022-08-21T03:42:50;14.00;;;9.82;;
2898;SDS011;1459;50.864;6.438;2022-08-21T03:45:18;12.38;;;9.48;;
2898;SDS011;1459;50.864;6.438;2022-08-21T03:47:52;12.23;;;8.60;;
2898;SDS011;1459;50.864;6.438;2022-08-21T03:50:22;11.55;;;9.05;;
2898;SDS011;1459;50.864;6.438;2022-08-21T03:52:50;12.73;;;9.80;;
2898;SDS011;1459;50.864;6.438;2022-08-21T03:55:17;12.20;;;10.02;;
2898;SDS011;1459;50.864;6.438;2022-08-21T03:57:45;13.48;;;9.70;;
2898;SDS011;1459;50.864;6.438;2022-08-21T04:00:13;11.13;;;10.02;;
2898;SDS011;1459;50.864;6.438;2022-08-21T04:02:41;11.85;;;9.18;;
2898;SDS011;1459;50.864;6.438;2022-08-21T04:05:09;11.68;;;8.85;;
2898;SDS011;1459;50.864;6.438;2022-08-21T04:07:37;13.43;;;9.57;;
2898;SDS011;1459;50.864;6.438;2022-08-21T04:10:05;14.57;;;9.60;;
2898;SDS011;1459;50.864;6.438;2022-08-21T04:12:33;12.35;;;10.93;;
2898;SDS011;1459;50.864;6.438;2022-08-21T04:15:01;13.40;;;10.45;;
2898;SDS011;1459;50.864;6.438;2022-08-21T04:17:29;15.55;;;11.88;;
2898;SDS011;1459;50.864;6.438;2022-08-21T04:19:56;12.85;;;10.30;;
2898;SDS011;1459;50.864;6.438;2022-08-21T04:22:23;11.52;;;10.20;;
2898;SDS011;1459;50.864;6.438;2022-08-21T04:24:51;13.30;;;10.20;;
2898;SDS011;1459;50.864;6.438;2022-08-21T04:27:18;10.80;;;9.70;;
2898;SDS011;1459;50.864;6.438;2022-08-21T04:29:45;11.43;;;8.95;;
2898;SDS011;1459;50.864;6.438;2022-08-21T04:32:13;10.70;;;8.43;;
2898;SDS011;1459;50.864;6.438;2022-08-21T04:34:48;12.80;;;10.77;;
2898;SDS011;1459;50.864;6.438;2022-08-21T04:37:15;9.15;;;7.88;;
2898;SDS011;1459;50.864;6.438;2022-08-21T04:39:42;8.77;;;7.07;;
2898;SDS011;1459;50.864;6.438;2022-08-21T04:42:09;9.07;;;7.80;;
2898;SDS011;1459;50.864;6.438;2022-08-21T04:44:39;9.60;;;7.05;;
2898;SDS011;1459;50.864;6.438;2022-08-21T04:47:06;8.35;;;7.18;;
2898;SDS011;1459;50.864;6.438;2022-08-21T04:49:34;8.30;;;7.03;;
2898;SDS011;1459;50.864;6.438;2022-08-21T04:52:02;8.27;;;5.85;;
2898;SDS011;1459;50.864;6.438;2022-08-21T04:54:29;10.85;;;5.72;;
2898;SDS011;1459;50.864;6.438;2022-08-21T04:56:58;10.65;;;6.65;;
2898;SDS011;1459;50.864;6.438;2022-08-21T04:59:30;9.90;;;5.80;;
2898;SDS011;1459;50.864;6.438;2022-08-21T05:02:01;12.30;;;5.57;;
2898;SDS011;1459;50.864;6.438;2022-08-21T05:04:29;7.88;;;6.50;;
2898;SDS011;1459;50.864;6.438;2022-08-21T05:07:01;7.35;;;5.10;;
2898;SDS011;1459;50.864;6.438;2022-08-21T05:09:31;13.52;;;6.72;;
2898;SDS011;1459;50.864;6.438;2022-08-21T05:12:00;7.18;;;5.03;;
2898;SDS011;1459;50.864;6.438;2022-08-21T05:14:27;11.20;;;6.15;;
2898;SDS011;1459;50.864;6.438;2022-08-21T05:16:55;8.15;;;6.45;;
2898;SDS011;1459;50.864;6.438;2022-08-21T05:19:22;10.27;;;7.18;;
2898;SDS011;1459;50.864;6.438;2022-08-21T05:21:49;9.68;;;7.95;;
2898;SDS011;1459;50.864;6.438;2022-08-21T05:24:18;11.40;;;7.68;;
2898;SDS011;1459;50.864;6.438;2022-08-21T05:26:45;12.40;;;8.73;;
2898;SDS011;1459;50.864;6.438;2022-08-21T05:29:12;8.30;;;7.28;;
2898;SDS011;1459;50.864;6.438;2022-08-21T05:31:39;8.93;;;6.85;;
2898;SDS011;1459;50.864;6.438;2022-08-21T05:34:07;9.50;;;6.63;;
2898;SDS011;1459;50.864;6.438;2022-08-21T05:36:35;9.07;;;6.72;;
2898;SDS011;1459;50.864;6.438;2022-08-21T05:39:02;8.95;;;4.95;;
2898;SDS011;1459;50.864;6.438;2022-08-21T05:41:31;7.57;;;4.72;;
2898;SDS011;1459;50.864;6.438;2022-08-21T05:43:58;8.50;;;5.60;;
2898;SDS011;1459;50.864;6.438;2022-08-21T05:46:25;6.93;;;6.00;;
2898;SDS011;1459;50.864;6.438;2022-08-21T05:48:52;12.32;;;6.75;;
2898;SDS011;1459;50.864;6.438;2022-08-21T05:51:19;10.48;;;8.13;;
2898;SDS011;1459;50.864;6.438;2022-08-21T05:53:46;10.45;;;7.20;;
2898;SDS011;1459;50.864;6.438;2022-08-21T05:56:14;11.07;;;6.57;;
2898;SDS011;1459;50.864;6.438;2022-08-21T05:58:42;8.10;;;4.75;;
2898;SDS011;1459;50.864;6.438;2022-08-21T06:01:10;9.65;;;4.10;;
2898;SDS011;1459;50.864;6.438;2022-08-21T06:03:38;6.65;;;3.65;;
2898;SDS011;1459;50.864;6.438;2022-08-21T06:06:06;9.57;;;3.90;;
2898;SDS011;1459;50.864;6.438;2022-08-21T06:08:34;8.65;;;6.47;;
2898;SDS011;1459;50.864;6.438;2022-08-21T06:11:01;13.27;;;8.18;;
2898;SDS011;1459;50.864;6.438;2022-08-21T06:13:30;10.85;;;8.25;;
2898;SDS011;1459;50.864;6.438;2022-08-21T06:16:04;9.20;;;7.20;;
2898;SDS011;1459;50.864;6.438;2022-08-21T06:18:33;10.45;;;7.57;;
2898;SDS011;1459;50.864;6.438;2022-08-21T06:21:00;8.05;;;4.85;;
2898;SDS011;1459;50.864;6.438;2022-08-21T06:23:27;8.88;;;3.65;;
2898;SDS011;1459;50.864;6.438;2022-08-21T06:25:54;5.40;;;3.60;;
2898;SDS011;1459;50.864;6.438;2022-08-21T06:28:22;8.18;;;4.00;;
2898;SDS011;1459;50.864;6.438;2022-08-21T06:30:49;4.75;;;3.20;;
2898;SDS011;1459;50.864;6.438;2022-08-21T06:33:17;6.05;;;3.55;;
2898;SDS011;1459;50.864;6.438;2022-08-21T06:35:45;8.52;;;3.65;;
2898;SDS011;1459;50.864;6.438;2022-08-21T06:38:12;4.90;;;3.05;;
2898;SDS011;1459;50.864;6.438;2022-08-21T06:40:39;3.95;;;2.90;;
2898;SDS011;1459;50.864;6.438;2022-08-21T06:43:07;5.88;;;3.00;;
2898;SDS011;1459;50.864;6.438;2022-08-21T06:45:35;10.38;;;3.40;;
2898;SDS011;1459;50.864;6.438;2022-08-21T06:48:03;5.68;;;3.05;;
2898;SDS011;1459;50.864;6.438;2022-08-21T06:50:33;7.00;;;3.35;;
2898;SDS011;1459;50.864;6.438;2022-08-21T06:53:01;8.23;;;3.50;;
2898;SDS011;1459;50.864;6.438;2022-08-21T06:55:29;7.70;;;3.05;;
2898;SDS011;1459;50.864;6.438;2022-08-21T06:57:56;7.72;;;2.80;;
2898;SDS011;1459;50.864;6.438;2022-08-21T07:00:24;10.10;;;3.80;;
2898;SDS011;1459;50.864;6.438;2022-08-21T07:02:51;9.20;;;3.15;;
2898;SDS011;1459;50.864;6.438;2022-08-21T07:05:18;8.02;;;3.53;;
2898;SDS011;1459;50.864;6.438;2022-08-21T07:07:47;8.27;;;3.80;;
2898;SDS011;1459;50.864;6.438;2022-08-21T07:10:14;6.18;;;2.90;;
2898;SDS011;1459;50.864;6.438;2022-08-21T07:12:41;9.95;;;3.63;;
2898;SDS011;1459;50.864;6.438;2022-08-21T07:15:09;9.98;;;2.50;;
2898;SDS011;1459;50.864;6.438;2022-08-21T07:17:37;9.55;;;3.05;;
2898;SDS011;1459;50.864;6.438;2022-08-21T07:20:04;6.40;;;2.70;;
2898;SDS011;1459;50.864;6.438;2022-08-21T07:22:35;8.68;;;2.30;;
2898;SDS011;1459;50.864;6.438;2022-08-21T07:25:05;6.40;;;2.60;;
2898;SDS011;1459;50.864;6.438;2022-08-21T07:27:32;7.55;;;2.92;;
2898;SDS011;1459;50.864;6.438;2022-08-21T07:29:59;6.80;;;3.50;;
2898;SDS011;1459;50.864;6.438;2022-08-21T07:32:26;9.02;;;2.88;;
2898;SDS011;1459;50.864;6.438;2022-08-21T07:34:54;4.05;;;2.05;;
2898;SDS011;1459;50.864;6.438;2022-08-21T07:37:21;5.47;;;2.40;;
2898;SDS011;1459;50.864;6.438;2022-08-21T07:39:48;6.57;;;2.50;;
2898;SDS011;1459;50.864;6.438;2022-08-21T07:42:17;6.75;;;3.13;;
2898;SDS011;1459;50.864;6.438;2022-08-21T07:44:45;3.65;;;2.30;;
2898;SDS011;1459;50.864;6.438;2022-08-21T07:47:12;7.05;;;2.22;;
2898;SDS011;1459;50.864;6.438;2022-08-21T07:49:39;6.38;;;1.60;;
2898;SDS011;1459;50.864;6.438;2022-08-21T07:52:06;5.95;;;2.35;;
2898;SDS011;1459;50.864;6.438;2022-08-21T07:54:33;4.50;;;1.85;;
2898;SDS011;1459;50.864;6.438;2022-08-21T07:57:00;4.40;;;1.75;;
2898;SDS011;1459;50.864;6.438;2022-08-21T07:59:30;5.05;;;1.80;;
2898;SDS011;1459;50.864;6.438;2022-08-21T08:01:57;5.18;;;2.00;;
2898;SDS011;1459;50.864;6.438;2022-08-21T08:04:24;6.07;;;1.92;;
2898;SDS011;1459;50.864;6.438;2022-08-21T08:06:51;3.90;;;1.77;;
2898;SDS011;1459;50.864;6.438;2022-08-21T08:09:18;9.75;;;2.58;;
2898;SDS011;1459;50.864;6.438;2022-08-21T08:11:45;8.77;;;2.08;;
2898;SDS011;1459;50.864;6.438;2022-08-21T08:14:13;7.10;;;2.10;;
2898;SDS011;1459;50.864;6.438;2022-08-21T08:16:42;6.10;;;2.20;;
2898;SDS011;1459;50.864;6.438;2022-08-21T08:19:09;4.35;;;1.95;;
2898;SDS011;1459;50.864;6.438;2022-08-21T08:21:36;4.80;;;1.70;;
2898;SDS011;1459;50.864;6.438;2022-08-21T08:24:03;4.95;;;1.45;;
2898;SDS011;1459;50.864;6.438;2022-08-21T08:26:31;5.82;;;1.80;;
2898;SDS011;1459;50.864;6.438;2022-08-21T08:28:58;5.38;;;1.85;;
2898;SDS011;1459;50.864;6.438;2022-08-21T08:31:25;4.78;;;1.50;;
2898;SDS011;1459;50.864;6.438;2022-08-21T08:33:53;4.10;;;1.67;;
2898;SDS011;1459;50.864;6.438;2022-08-21T08:36:20;7.68;;;1.75;;
2898;SDS011;1459;50.864;6.438;2022-08-21T08:38:58;6.53;;;1.88;;
2898;SDS011;1459;50.864;6.438;2022-08-21T08:41:25;3.60;;;1.70;;
2898;SDS011;1459;50.864;6.438;2022-08-21T08:43:53;6.32;;;1.60;;
2898;SDS011;1459;50.864;6.438;2022-08-21T08:46:25;3.05;;;1.50;;
2898;SDS011;1459;50.864;6.438;2022-08-21T08:49:02;3.97;;;1.75;;
2898;SDS011;1459;50.864;6.438;2022-08-21T08:51:37;3.28;;;1.40;;
2898;SDS011;1459;50.864;6.438;2022-08-21T08:54:11;3.75;;;1.65;;
2898;SDS011;1459;50.864;6.438;2022-08-21T08:56:43;4.70;;;1.88;;
2898;SDS011;1459;50.864;6.438;2022-08-21T08:59:14;5.97;;;1.90;;
2898;SDS011;1459;50.864;6.438;2022-08-21T09:01:45;8.73;;;2.35;;
2898;SDS011;1459;50.864;6.438;2022-08-21T09:04:23;3.55;;;1.58;;
2898;SDS011;1459;50.864;6.438;2022-08-21T09:06:55;5.63;;;1.45;;
2898;SDS011;1459;50.864;6.438;2022-08-21T09:09:33;4.28;;;1.42;;
2898;SDS011;1459;50.864;6.438;2022-08-21T09:12:09;4.45;;;1.90;;
2898;SDS011;1459;50.864;6.438;2022-08-21T09:14:48;7.00;;;1.83;;
2898;SDS011;1459;50.864;6.438;2022-08-21T09:17:28;7.18;;;1.95;;
2898;SDS011;1459;50.864;6.438;2022-08-21T09:20:14;4.30;;;1.70;;
2898;SDS011;1459;50.864;6.438;2022-08-21T09:22:47;5.90;;;2.20;;
2898;SDS011;1459;50.864;6.438;2022-08-21T09:25:24;6.22;;;1.80;;
2898;SDS011;1459;50.864;6.438;2022-08-21T09:27:53;3.58;;;1.50;;
2898;SDS011;1459;50.864;6.438;2022-08-21T09:30:25;3.53;;;1.60;;
2898;SDS011;1459;50.864;6.438;2022-08-21T09:32:53;3.20;;;1.67;;
2898;SDS011;1459;50.864;6.438;2022-08-21T09:35:23;3.25;;;1.42;;
2898;SDS011;1459;50.864;6.438;2022-08-21T09:37:52;4.20;;;1.30;;
2898;SDS011;1459;50.864;6.438;2022-08-21T09:40:27;5.47;;;2.17;;
2898;SDS011;1459;50.864;6.438;2022-08-21T09:42:58;6.25;;;1.90;;
2898;SDS011;1459;50.864;6.438;2022-08-21T09:45:27;3.45;;;1.65;;
2898;SDS011;1459;50.864;6.438;2022-08-21T09:47:55;6.40;;;2.05;;
2898;SDS011;1459;50.864;6.438;2022-08-21T09:50:25;4.32;;;1.95;;
2898;SDS011;1459;50.864;6.438;2022-08-21T09:52:55;9.88;;;2.65;;
2898;SDS011;1459;50.864;6.438;2022-08-21T09:55:29;6.22;;;2.08;;
2898;SDS011;1459;50.864;6.438;2022-08-21T09:58:15;4.63;;;1.80;;
2898;SDS011;1459;50.864;6.438;2022-08-21T10:00:44;3.58;;;2.15;;
2898;SDS011;1459;50.864;6.438;2022-08-21T10:03:13;7.00;;;2.60;;
2898;SDS011;1459;50.864;6.438;2022-08-21T10:05:52;4.13;;;2.00;;
2898;SDS011;1459;50.864;6.438;2022-08-21T10:08:21;10.07;;;2.50;;
2898;SDS011;1459;50.864;6.438;2022-08-21T10:10:51;8.07;;;2.08;;
2898;SDS011;1459;50.864;6.438;2022-08-21T10:13:28;6.20;;;2.10;;
2898;SDS011;1459;50.864;6.438;2022-08-21T10:16:06;9.95;;;1.95;;
2898;SDS011;1459;50.864;6.438;2022-08-21T10:18:45;4.35;;;2.00;;
2898;SDS011;1459;50.864;6.438;2022-08-21T10:21:26;5.50;;;2.10;;
2898;SDS011;1459;50.864;6.438;2022-08-21T10:24:01;3.85;;;2.50;;
2898;SDS011;1459;50.864;6.438;2022-08-21T10:26:39;5.38;;;2.53;;
2898;SDS011;1459;50.864;6.438;2022-08-21T10:29:17;4.05;;;2.30;;
2898;SDS011;1459;50.864;6.438;2022-08-21T10:32:03;5.00;;;2.57;;
2898;SDS011;1459;50.864;6.438;2022-08-21T10:34:44;9.77;;;1.88;;
2898;SDS011;1459;50.864;6.438;2022-08-21T10:37:25;6.88;;;2.85;;
2898;SDS011;1459;50.864;6.438;2022-08-21T10:40:07;6.45;;;1.77;;
2898;SDS011;1459;50.864;6.438;2022-08-21T10:42:43;4.65;;;2.22;;
2898;SDS011;1459;50.864;6.438;2022-08-21T10:45:26;4.53;;;1.63;;
2898;SDS011;1459;50.864;6.438;2022-08-21T10:48:05;11.27;;;2.35;;
2898;SDS011;1459;50.864;6.438;2022-08-21T10:50:35;4.10;;;2.03;;
2898;SDS011;1459;50.864;6.438;2022-08-21T10:53:15;4.95;;;2.00;;
2898;SDS011;1459;50.864;6.438;2022-08-21T10:56:01;3.95;;;1.67;;
2898;SDS011;1459;50.864;6.438;2022-08-21T10:58:37;4.40;;;2.10;;
2898;SDS011;1459;50.864;6.438;2022-08-21T11:01:17;7.07;;;2.10;;
2898;SDS011;1459;50.864;6.438;2022-08-21T11:03:50;4.85;;;2.33;;
2898;SDS011;1459;50.864;6.438;2022-08-21T11:06:21;5.50;;;2.30;;
2898;SDS011;1459;50.864;6.438;2022-08-21T11:08:52;10.93;;;2.13;;
2898;SDS011;1459;50.864;6.438;2022-08-21T11:11:25;6.20;;;2.13;;
2898;SDS011;1459;50.864;6.438;2022-08-21T11:13:56;4.93;;;1.70;;
2898;SDS011;1459;50.864;6.438;2022-08-21T11:16:29;7.17;;;2.30;;
2898;SDS011;1459;50.864;6.438;2022-08-21T11:19:04;6.10;;;2.27;;
2898;SDS011;1459;50.864;6.438;2022-08-21T11:21:38;6.68;;;2.00;;
2898;SDS011;1459;50.864;6.438;2022-08-21T11:24:15;4.95;;;2.17;;
2898;SDS011;1459;50.864;6.438;2022-08-21T11:26:51;5.32;;;2.00;;
2898;SDS011;1459;50.864;6.438;2022-08-21T11:29:24;4.80;;;2.13;;
2898;SDS011;1459;50.864;6.438;2022-08-21T11:31:58;8.83;;;2.07;;
2898;SDS011;1459;50.864;6.438;2022-08-21T11:34:38;5.60;;;1.87;;
2898;SDS011;1459;50.864;6.438;2022-08-21T11:37:16;5.77;;;2.17;;
2898;SDS011;1459;50.864;6.438;2022-08-21T11:39:52;5.43;;;2.30;;
2898;SDS011;1459;50.864;6.438;2022-08-21T11:42:25;6.10;;;2.10;;
2898;SDS011;1459;50.864;6.438;2022-08-21T11:45:17;5.90;;;2.00;;
2898;SDS011;1459;50.864;6.438;2022-08-21T11:47:54;7.97;;;3.77;;
2898;SDS011;1459;50.864;6.438;2022-08-21T11:50:30;4.40;;;2.40;;
2898;SDS011;1459;50.864;6.438;2022-08-21T11:52:59;5.90;;;1.90;;
2898;SDS011;1459;50.864;6.438;2022-08-21T11:55:34;5.82;;;2.40;;
2898;SDS011;1459;50.864;6.438;2022-08-21T11:58:07;4.40;;;2.13;;
2898;SDS011;1459;50.864;6.438;2022-08-21T12:00:41;6.50;;;2.03;;
2898;SDS011;1459;50.864;6.438;2022-08-21T12:03:13;4.77;;;2.27;;
2898;SDS011;1459;50.864;6.438;2022-08-21T12:05:44;5.60;;;2.07;;
2898;SDS011;1459;50.864;6.438;2022-08-21T12:08:26;5.03;;;2.23;;
2898;SDS011;1459;50.864;6.438;2022-08-21T12:11:00;6.37;;;2.30;;
2898;SDS011;1459;50.864;6.438;2022-08-21T12:13:31;4.83;;;2.03;;
2898;SDS011;1459;50.864;6.438;2022-08-21T12:16:06;4.80;;;2.00;;
2898;SDS011;1459;50.864;6.438;2022-08-21T12:18:34;6.93;;;2.20;;
2898;SDS011;1459;50.864;6.438;2022-08-21T12:21:04;7.57;;;2.30;;
2898;SDS011;1459;50.864;6.438;2022-08-21T12:23:44;4.10;;;1.70;;
2898;SDS011;1459;50.864;6.438;2022-08-21T12:26:20;7.87;;;2.60;;
2898;SDS011;1459;50.864;6.438;2022-08-21T12:28:51;5.23;;;2.03;;
2898;SDS011;1459;50.864;6.438;2022-08-21T12:31:52;5.73;;;2.03;;
2898;SDS011;1459;50.864;6.438;2022-08-21T12:34:23;4.00;;;1.83;;
2898;SDS011;1459;50.864;6.438;2022-08-21T12:36:58;3.27;;;1.73;;
2898;SDS011;1459;50.864;6.438;2022-08-21T12:39:29;4.97;;;3.13;;
2898;SDS011;1459;50.864;6.438;2022-08-21T12:42:00;4.72;;;2.10;;
2898;SDS011;1459;50.864;6.438;2022-08-21T12:44:35;6.30;;;2.93;;
2898;SDS011;1459;50.864;6.438;2022-08-21T12:47:13;5.22;;;2.22;;
2898;SDS011;1459;50.864;6.438;2022-08-21T12:49:45;5.00;;;2.73;;
2898;SDS011;1459;50.864;6.438;2022-08-21T12:52:20;3.95;;;2.03;;
2898;SDS011;1459;50.864;6.438;2022-08-21T12:54:49;6.80;;;2.70;;
2898;SDS011;1459;50.864;6.438;2022-08-21T12:57:19;4.57;;;2.07;;
2898;SDS011;1459;50.864;6.438;2022-08-21T12:59:51;7.63;;;2.37;;
2898;SDS011;1459;50.864;6.438;2022-08-21T13:02:20;7.70;;;2.20;;
2898;SDS011;1459;50.864;6.438;2022-08-21T13:04:50;4.47;;;1.80;;
2898;SDS011;1459;50.864;6.438;2022-08-21T13:07:23;4.33;;;2.40;;
2898;SDS011;1459;50.864;6.438;2022-08-21T13:09:55;2.77;;;1.70;;
2898;SDS011;1459;50.864;6.438;2022-08-21T13:12:27;7.43;;;2.20;;
2898;SDS011;1459;50.864;6.438;2022-08-21T13:14:56;8.23;;;2.00;;
2898;SDS011;1459;50.864;6.438;2022-08-21T13:17:25;6.47;;;2.10;;
2898;SDS011;1459;50.864;6.438;2022-08-21T13:19:56;6.60;;;1.67;;
2898;SDS011;1459;50.864;6.438;2022-08-21T13:22:25;3.70;;;1.80;;
2898;SDS011;1459;50.864;6.438;2022-08-21T13:24:53;2.60;;;1.40;;
2898;SDS011;1459;50.864;6.438;2022-08-21T13:27:22;3.93;;;1.97;;
2898;SDS011;1459;50.864;6.438;2022-08-21T13:30:07;3.93;;;1.97;;
2898;SDS011;1459;50.864;6.438;2022-08-21T13:32:37;4.20;;;2.10;;
2898;SDS011;1459;50.864;6.438;2022-08-21T13:35:12;4.70;;;2.27;;
2898;SDS011;1459;50.864;6.438;2022-08-21T13:37:43;6.60;;;1.57;;
2898;SDS011;1459;50.864;6.438;2022-08-21T13:40:13;6.20;;;1.70;;
2898;SDS011;1459;50.864;6.438;2022-08-21T13:42:43;3.97;;;1.93;;
2898;SDS011;1459;50.864;6.438;2022-08-21T13:45:15;4.43;;;1.80;;
2898;SDS011;1459;50.864;6.438;2022-08-21T13:47:45;4.47;;;2.27;;
2898;SDS011;1459;50.864;6.438;2022-08-21T13:50:14;5.00;;;2.70;;
2898;SDS011;1459;50.864;6.438;2022-08-21T13:52:54;3.33;;;1.50;;
2898;SDS011;1459;50.864;6.438;2022-08-21T13:55:24;6.30;;;2.20;;
2898;SDS011;1459;50.864;6.438;2022-08-21T13:57:58;4.77;;;2.03;;
2898;SDS011;1459;50.864;6.438;2022-08-21T14:00:29;6.00;;;1.80;;
2898;SDS011;1459;50.864;6.438;2022-08-21T14:03:00;7.23;;;2.00;;
2898;SDS011;1459;50.864;6.438;2022-08-21T14:05:32;4.13;;;1.63;;
2898;SDS011;1459;50.864;6.438;2022-08-21T14:08:03;5.00;;;1.50;;
2898;SDS011;1459;50.864;6.438;2022-08-21T14:10:34;5.63;;;1.60;;
2898;SDS011;1459;50.864;6.438;2022-08-21T14:13:06;5.63;;;1.37;;
2898;SDS011;1459;50.864;6.438;2022-08-21T14:15:42;2.93;;;1.40;;
2898;SDS011;1459;50.864;6.438;2022-08-21T14:18:20;4.27;;;1.83;;
2898;SDS011;1459;50.864;6.438;2022-08-21T14:20:50;4.53;;;1.67;;
2898;SDS011;1459;50.864;6.438;2022-08-21T14:23:23;3.10;;;1.30;;
2898;SDS011;1459;50.864;6.438;2022-08-21T14:25:51;4.33;;;2.10;;
2898;SDS011;1459;50.864;6.438;2022-08-21T14:28:19;3.00;;;1.47;;
2898;SDS011;1459;50.864;6.438;2022-08-21T14:30:53;3.60;;;1.53;;
2898;SDS011;1459;50.864;6.438;2022-08-21T14:33:23;5.67;;;1.80;;
2898;SDS011;1459;50.864;6.438;2022-08-21T14:35:52;3.73;;;1.40;;
2898;SDS011;1459;50.864;6.438;2022-08-21T14:38:20;3.80;;;1.90;;
2898;SDS011;1459;50.864;6.438;2022-08-21T14:40:50;3.90;;;1.80;;
2898;SDS011;1459;50.864;6.438;2022-08-21T14:43:20;2.70;;;1.20;;
2898;SDS011;1459;50.864;6.438;2022-08-21T14:45:47;4.37;;;1.57;;
2898;SDS011;1459;50.864;6.438;2022-08-21T14:48:16;6.87;;;2.33;;
2898;SDS011;1459;50.864;6.438;2022-08-21T14:50:43;2.03;;;1.07;;
2898;SDS011;1459;50.864;6.438;2022-08-21T14:53:10;2.10;;;1.23;;
2898;SDS011;1459;50.864;6.438;2022-08-21T14:55:38;2.67;;;1.40;;
2898;SDS011;1459;50.864;6.438;2022-08-21T14:58:23;5.13;;;1.73;;
2898;SDS011;1459;50.864;6.438;2022-08-21T15:00:51;6.43;;;1.77;;
2898;SDS011;1459;50.864;6.438;2022-08-21T15:03:21;4.00;;;1.80;;
2898;SDS011;1459;50.864;6.438;2022-08-21T15:05:48;3.23;;;1.50;;
2898;SDS011;1459;50.864;6.438;2022-08-21T15:08:15;6.30;;;2.83;;
2898;SDS011;1459;50.864;6.438;2022-08-21T15:10:43;6.50;;;1.60;;
2898;SDS011;1459;50.864;6.438;2022-08-21T15:13:11;2.43;;;1.13;;
2898;SDS011;1459;50.864;6.438;2022-08-21T15:15:39;4.13;;;1.77;;
2898;SDS011;1459;50.864;6.438;2022-08-21T15:18:07;3.87;;;1.90;;
2898;SDS011;1459;50.864;6.438;2022-08-21T15:20:36;3.77;;;2.20;;
2898;SDS011;1459;50.864;6.438;2022-08-21T15:23:04;3.23;;;1.50;;
2898;SDS011;1459;50.864;6.438;2022-08-21T15:25:31;3.03;;;1.67;;
2898;SDS011;1459;50.864;6.438;2022-08-21T15:27:59;4.80;;;1.40;;
2898;SDS011;1459;50.864;6.438;2022-08-21T15:30:27;3.80;;;1.70;;